This is the latest recevied weather packets stored in our database for station/object W3BRL. If no packets are shown the sender has not sent any weather packets the latest 10 day(s).
| Time | Temp. | Humidity | Pressure | Rain* | Wind** | Luminosity | Snow |
|---|---|---|---|---|---|---|---|
| 1777689480 | 4.44° C | 89% | 1012.8 hPa | 0 mm | - | 0 W/m² | - |
| 1777689178 | 4.44° C | 89% | 1012.8 hPa | 0 mm | - | 0 W/m² | - |
| 1777688875 | 4.44° C | 89% | 1012.4 hPa | 0 mm | - | 0 W/m² | - |
| 1777688571 | 5° C | 89% | 1012.5 hPa | 0 mm | - | 0 W/m² | - |
| 1777687663 | 5° C | 88% | 1012.2 hPa | 0 mm | - | 0 W/m² | - |
| 1777674330 | 8.33° C | 89% | 1009 hPa | 0 mm | - | 157 W/m² | - |
| 1777674027 | 8.33° C | 90% | 1009 hPa | 0 mm | - | 90 W/m² | - |
| 1777673723 | 8.33° C | 90% | 1009 hPa | 0 mm | - | 105 W/m² | - |
| 1777673119 | 8.33° C | 89% | 1009 hPa | 0 mm | - | 66 W/m² | - |
| 1777670384 | 7.78° C | 88% | 1009.6 hPa | 3.05 mm | - | 42 W/m² | - |
| 1777670082 | 7.78° C | 87% | 1009.3 hPa | 4.83 mm | - | 42 W/m² | - |
| 1777668869 | 7.78° C | 85% | 1009.4 hPa | 0 mm | - | 26 W/m² | - |
| 1777667050 | 8.33° C | 82% | 1009.1 hPa | 1.78 mm | - | 110 W/m² | - |
| 1777664623 | 10° C | 75% | 1008.9 hPa | 0 mm | - | 133 W/m² | - |
| 1777664018 | 10° C | 73% | 1009 hPa | 0 mm | - | 111 W/m² | - |
| 1777663715 | 10° C | 71% | 1008.9 hPa | 0 mm | - | 127 W/m² | - |
| 1777663109 | 10° C | 72% | 1008.9 hPa | 0 mm | - | 190 W/m² | - |
| 1777662502 | 10° C | 72% | 1008.9 hPa | 0 mm | - | 318 W/m² | - |
| 1777660678 | 10° C | 74% | 1009 hPa | 0 mm | - | 205 W/m² | - |
| 1777660375 | 10° C | 72% | 1009.2 hPa | 0 mm | - | 150 W/m² | - |
| 1777660071 | 10° C | 71% | 1009.2 hPa | 0 mm | - | 135 W/m² | - |
| 1777659465 | 11.11° C | 70% | 1009.3 hPa | 0 mm | - | 172 W/m² | - |
| 1777658860 | 10.56° C | 78% | 1008.8 hPa | 0 mm | - | 862 W/m² | - |
| 1777657950 | 8.89° C | 75% | 1009.2 hPa | 1.78 mm | - | 261 W/m² | - |
| 1777657344 | 8.89° C | 76% | 1009.2 hPa | 1.27 mm | - | 40 W/m² | - |
* Rain latest hour (hover to see other rain measurements)
** Current wind speed in m/s (hover to see current wind gust speed)